createdAt,value
2023-06-21T00:00:30.575Z,1006.86
2023-06-21T00:01:30.582Z,1006.89
2023-06-21T00:02:30.599Z,1006.84
2023-06-21T00:03:30.526Z,1006.86
2023-06-21T00:04:30.523Z,1006.89
2023-06-21T00:05:30.514Z,1006.92
2023-06-21T00:06:30.512Z,1006.92
2023-06-21T00:07:30.512Z,1006.89
2023-06-21T00:08:30.518Z,1006.89
2023-06-21T00:09:30.507Z,1006.94
2023-06-21T00:10:30.727Z,1006.95
2023-06-21T00:11:30.517Z,1006.97
2023-06-21T00:12:30.502Z,1006.97
2023-06-21T00:13:30.500Z,1006.98
2023-06-21T00:14:30.501Z,1006.98
2023-06-21T00:15:30.503Z,1006.99
2023-06-21T00:16:30.495Z,1006.99
2023-06-21T00:17:30.512Z,1007.02
2023-06-21T00:18:30.494Z,1006.99
2023-06-21T00:19:30.494Z,1007.02
2023-06-21T00:20:30.574Z,1006.99
2023-06-21T00:21:30.497Z,1007.03
2023-06-21T00:22:30.486Z,1007.02
2023-06-21T00:23:30.483Z,1007.08
2023-06-21T00:24:30.577Z,1007.09
2023-06-21T00:25:30.484Z,1007.10
2023-06-21T00:26:30.483Z,1007.08
2023-06-21T00:27:30.481Z,1007.07
2023-06-21T00:28:30.478Z,1007.10
2023-06-21T00:29:30.484Z,1007.05
2023-06-21T00:30:30.488Z,1007.08
2023-06-21T00:31:30.497Z,1007.10
2023-06-21T00:32:30.508Z,1007.15
2023-06-21T00:33:30.480Z,1007.21
2023-06-21T00:34:30.464Z,1007.22
2023-06-21T00:35:30.474Z,1007.25
2023-06-21T00:36:30.460Z,1007.22
2023-06-21T00:37:30.468Z,1007.20
2023-06-21T00:38:30.459Z,1007.21
2023-06-21T00:39:30.454Z,1007.14
2023-06-21T00:40:35.530Z,1007.16
2023-06-21T00:41:30.464Z,1007.16
2023-06-21T00:42:30.457Z,1007.17
2023-06-21T00:43:30.459Z,1007.17
2023-06-21T00:44:30.446Z,1007.18
2023-06-21T00:45:30.449Z,1007.18
2023-06-21T00:46:30.464Z,1007.16
2023-06-21T00:47:30.500Z,1007.18
2023-06-21T00:48:30.568Z,1007.19
2023-06-21T00:49:30.434Z,1007.13
2023-06-21T00:50:30.437Z,1007.14
2023-06-21T00:51:30.429Z,1007.09
2023-06-21T00:52:30.430Z,1007.07
2023-06-21T00:53:30.437Z,1007.04
2023-06-21T00:54:30.428Z,1007.00
2023-06-21T00:55:30.424Z,1006.96
2023-06-21T00:56:30.426Z,1006.92
2023-06-21T00:57:30.423Z,1006.88
2023-06-21T00:58:30.420Z,1006.82
2023-06-21T00:59:30.415Z,1006.80
2023-06-21T01:00:30.531Z,1006.79
2023-06-21T01:01:30.432Z,1006.77
2023-06-21T01:02:30.486Z,1006.75
2023-06-21T01:03:30.409Z,1006.70
2023-06-21T01:04:30.410Z,1006.68
2023-06-21T01:05:30.486Z,1006.66
2023-06-21T01:06:30.407Z,1006.63
2023-06-21T01:07:30.418Z,1006.67
2023-06-21T01:08:30.400Z,1006.69
2023-06-21T01:09:30.400Z,1006.72
2023-06-21T01:10:30.399Z,1006.79
2023-06-21T01:11:30.393Z,1006.78
2023-06-21T01:12:30.485Z,1006.80
2023-06-21T01:13:30.563Z,1006.82
2023-06-21T01:14:30.388Z,1006.82
2023-06-21T01:15:30.388Z,1006.85
2023-06-21T01:16:30.385Z,1006.87
2023-06-21T01:17:30.401Z,1006.89
2023-06-21T01:18:30.389Z,1006.90
2023-06-21T01:19:30.381Z,1006.89
2023-06-21T01:20:30.756Z,1006.91
2023-06-21T01:21:30.378Z,1006.94
2023-06-21T01:22:30.397Z,1006.93
2023-06-21T01:23:30.371Z,1006.95
2023-06-21T01:24:30.432Z,1006.90
2023-06-21T01:25:30.389Z,1006.87
2023-06-21T01:26:30.368Z,1006.87
2023-06-21T01:27:30.371Z,1006.85
2023-06-21T01:28:30.378Z,1006.84
2023-06-21T01:29:30.375Z,1006.81
2023-06-21T01:30:30.448Z,1006.76
2023-06-21T01:31:30.400Z,1006.65
2023-06-21T01:32:30.396Z,1006.63
2023-06-21T01:33:30.359Z,1006.65
2023-06-21T01:34:30.358Z,1006.67
2023-06-21T01:35:30.356Z,1006.66
2023-06-21T01:36:30.351Z,1006.68
2023-06-21T01:37:30.352Z,1006.70
2023-06-21T01:38:30.366Z,1006.68
2023-06-21T01:39:30.411Z,1006.64
2023-06-21T01:40:30.479Z,1006.64
2023-06-21T01:41:30.814Z,1006.66
2023-06-21T01:42:30.341Z,1006.70
2023-06-21T01:43:30.347Z,1006.68
2023-06-21T01:44:30.335Z,1006.67
2023-06-21T01:45:30.338Z,1006.68
2023-06-21T01:46:30.372Z,1006.66
2023-06-21T01:47:30.348Z,1006.67
2023-06-21T01:48:30.330Z,1006.71
2023-06-21T01:49:30.326Z,1006.73
2023-06-21T01:50:30.367Z,1006.81
2023-06-21T01:51:30.324Z,1006.80
2023-06-21T01:52:30.325Z,1006.82
2023-06-21T01:53:30.320Z,1006.89
2023-06-21T01:54:30.324Z,1006.90
2023-06-21T01:55:30.317Z,1006.92
2023-06-21T01:56:30.316Z,1006.94
2023-06-21T01:57:30.316Z,1006.92
2023-06-21T01:58:30.310Z,1006.95
2023-06-21T01:59:30.308Z,1006.91
2023-06-21T02:00:30.342Z,1006.89
2023-06-21T02:01:30.312Z,1006.92
2023-06-21T02:02:30.318Z,1006.91
2023-06-21T02:03:30.304Z,1006.88
2023-06-21T02:04:30.300Z,1006.89
2023-06-21T02:05:30.457Z,1006.85
2023-06-21T02:06:30.298Z,1006.86
2023-06-21T02:07:30.291Z,1006.82
2023-06-21T02:08:30.297Z,1006.81
2023-06-21T02:09:30.291Z,1006.84
2023-06-21T02:10:30.480Z,1006.85
2023-06-21T02:11:30.294Z,1006.86
2023-06-21T02:12:30.288Z,1006.89
2023-06-21T02:13:30.287Z,1006.92
2023-06-21T02:14:30.286Z,1006.91
2023-06-21T02:15:30.289Z,1006.87
2023-06-21T02:16:30.305Z,1006.84
2023-06-21T02:17:30.293Z,1006.82
2023-06-21T02:18:30.300Z,1006.89
2023-06-21T02:19:30.274Z,1006.92
2023-06-21T02:20:30.538Z,1006.99
2023-06-21T02:21:30.282Z,1007.04
2023-06-21T02:22:30.273Z,1007.08
2023-06-21T02:23:30.269Z,1007.13
2023-06-21T02:24:30.331Z,1007.15
2023-06-21T02:25:30.266Z,1007.21
2023-06-21T02:26:30.264Z,1007.18
2023-06-21T02:27:30.261Z,1007.23
2023-06-21T02:28:30.262Z,1007.27
2023-06-21T02:29:30.263Z,1007.35
2023-06-21T02:30:30.549Z,1007.40
2023-06-21T02:31:30.258Z,1007.49
2023-06-21T02:32:30.303Z,1007.57
2023-06-21T02:33:30.297Z,1007.73
2023-06-21T02:34:30.251Z,1007.89
2023-06-21T02:35:30.253Z,1007.99
2023-06-21T02:36:30.253Z,1007.97
2023-06-21T02:37:30.264Z,1007.98
2023-06-21T02:38:30.248Z,1007.93
2023-06-21T02:39:30.244Z,1007.91
2023-06-21T02:40:30.436Z,1007.91
2023-06-21T02:41:30.247Z,1007.96
2023-06-21T02:42:30.263Z,1007.96
2023-06-21T02:43:30.235Z,1007.95
2023-06-21T02:44:30.233Z,1008.00
2023-06-21T02:45:30.251Z,1008.09
2023-06-21T02:46:30.255Z,1008.07
2023-06-21T02:47:30.259Z,1008.06
2023-06-21T02:48:30.232Z,1008.02
2023-06-21T02:49:30.225Z,1007.99
2023-06-21T02:50:30.402Z,1007.96
2023-06-21T02:51:30.220Z,1007.97
2023-06-21T02:52:30.230Z,1007.99
2023-06-21T02:53:30.219Z,1007.93
2023-06-21T02:54:30.220Z,1007.85
2023-06-21T02:55:30.217Z,1007.81
2023-06-21T02:56:30.217Z,1007.75
2023-06-21T02:57:30.214Z,1007.72
2023-06-21T02:58:30.216Z,1007.65
2023-06-21T02:59:30.206Z,1007.61
2023-06-21T03:00:30.572Z,1007.59
2023-06-21T03:01:30.242Z,1007.57
2023-06-21T03:02:30.259Z,1007.52
2023-06-21T03:03:30.438Z,1007.53
2023-06-21T03:04:30.198Z,1007.54
2023-06-21T03:05:30.215Z,1007.54
2023-06-21T03:06:30.197Z,1007.50
2023-06-21T03:07:30.194Z,1007.45
2023-06-21T03:08:30.197Z,1007.38
2023-06-21T03:09:30.189Z,1007.33
2023-06-21T03:10:30.357Z,1007.28
2023-06-21T03:11:30.189Z,1007.31
2023-06-21T03:12:30.188Z,1007.32
2023-06-21T03:13:30.190Z,1007.29
2023-06-21T03:14:30.186Z,1007.25
2023-06-21T03:15:30.187Z,1007.24
2023-06-21T03:16:30.180Z,1007.19
2023-06-21T03:17:30.196Z,1007.17
2023-06-21T03:18:30.178Z,1007.11
2023-06-21T03:19:30.179Z,1007.08
2023-06-21T03:20:30.364Z,1007.04
2023-06-21T03:21:30.177Z,1006.95
2023-06-21T03:22:30.171Z,1006.92
2023-06-21T03:23:30.166Z,1006.92
2023-06-21T03:24:30.196Z,1006.91
2023-06-21T03:25:30.182Z,1006.93
2023-06-21T03:26:30.163Z,1006.91
2023-06-21T03:27:30.159Z,1006.90
2023-06-21T03:28:30.156Z,1006.91
2023-06-21T03:29:30.158Z,1006.94
2023-06-21T03:30:30.410Z,1006.93
2023-06-21T03:31:30.274Z,1006.97
2023-06-21T03:32:30.232Z,1006.98
2023-06-21T03:33:30.148Z,1006.98
2023-06-21T03:34:30.170Z,1007.02
2023-06-21T03:35:30.154Z,1006.99
2023-06-21T03:36:30.141Z,1006.99
2023-06-21T03:37:30.145Z,1007.01
2023-06-21T03:38:30.197Z,1007.04
2023-06-21T03:39:30.136Z,1007.04
2023-06-21T03:40:30.462Z,1007.05
2023-06-21T03:41:30.154Z,1007.09
2023-06-21T03:42:30.130Z,1007.09
2023-06-21T03:43:30.126Z,1007.10
2023-06-21T03:44:30.129Z,1007.13
2023-06-21T03:45:30.126Z,1007.17
2023-06-21T03:46:30.151Z,1007.21
2023-06-21T03:47:30.159Z,1007.21
2023-06-21T03:48:30.119Z,1007.23
2023-06-21T03:49:30.121Z,1007.27
2023-06-21T03:50:30.259Z,1007.27
2023-06-21T03:51:30.113Z,1007.33
2023-06-21T03:52:30.117Z,1007.33
2023-06-21T03:53:30.112Z,1007.39
2023-06-21T03:54:30.113Z,1007.41
2023-06-21T03:55:30.117Z,1007.48
2023-06-21T03:56:30.113Z,1007.53
2023-06-21T03:57:30.107Z,1007.56
2023-06-21T03:58:30.123Z,1007.65
2023-06-21T03:59:30.103Z,1007.69
2023-06-21T04:00:30.230Z,1007.70
2023-06-21T04:01:30.137Z,1007.70
2023-06-21T04:02:30.148Z,1007.65
2023-06-21T04:03:30.114Z,1007.60
2023-06-21T04:04:30.099Z,1007.57
2023-06-21T04:05:30.143Z,1007.61
2023-06-21T04:06:30.097Z,1007.64
2023-06-21T04:07:30.094Z,1007.67
2023-06-21T04:08:30.111Z,1007.71
2023-06-21T04:09:30.092Z,1007.71
2023-06-21T04:10:30.318Z,1007.71
2023-06-21T04:11:30.090Z,1007.72
2023-06-21T04:12:30.086Z,1007.77
2023-06-21T04:13:30.109Z,1007.78
2023-06-21T04:14:30.084Z,1007.83
2023-06-21T04:15:30.081Z,1007.86
2023-06-21T04:16:30.080Z,1007.86
2023-06-21T04:17:30.087Z,1007.85
2023-06-21T04:18:30.082Z,1007.87
2023-06-21T04:19:30.074Z,1007.84
2023-06-21T04:20:30.301Z,1007.85
2023-06-21T04:21:30.081Z,1007.83
2023-06-21T04:22:30.070Z,1007.83
2023-06-21T04:23:30.065Z,1007.87
2023-06-21T04:24:30.158Z,1007.89
2023-06-21T04:25:30.072Z,1007.95
2023-06-21T04:26:30.064Z,1008.04
2023-06-21T04:27:30.063Z,1008.09
2023-06-21T04:28:30.067Z,1008.19
2023-06-21T04:29:30.073Z,1008.24
2023-06-21T04:30:30.274Z,1008.31
2023-06-21T04:31:30.087Z,1008.40
2023-06-21T04:32:30.060Z,1008.38
2023-06-21T04:33:30.047Z,1008.35
2023-06-21T04:34:30.059Z,1008.38
2023-06-21T04:35:30.083Z,1008.41
2023-06-21T04:36:30.043Z,1008.32
2023-06-21T04:37:30.104Z,1008.35
2023-06-21T04:38:30.054Z,1008.43
2023-06-21T04:39:30.037Z,1008.56
2023-06-21T04:40:30.050Z,1008.60
2023-06-21T04:41:30.034Z,1008.62
2023-06-21T04:42:30.031Z,1008.66
2023-06-21T04:43:30.041Z,1008.66
2023-06-21T04:44:30.044Z,1008.64
2023-06-21T04:45:30.073Z,1008.63
2023-06-21T04:46:30.043Z,1008.63
2023-06-21T04:47:30.051Z,1008.62
2023-06-21T04:48:30.024Z,1008.67
2023-06-21T04:49:30.038Z,1008.71
2023-06-21T04:50:30.050Z,1008.72
2023-06-21T04:51:30.020Z,1008.72
2023-06-21T04:52:30.030Z,1008.77
2023-06-21T04:53:30.140Z,1008.75
2023-06-21T04:54:30.014Z,1008.75
2023-06-21T04:55:30.291Z,1008.79
2023-06-21T04:56:30.016Z,1008.74
2023-06-21T04:57:30.007Z,1008.83
2023-06-21T04:58:30.006Z,1008.79
2023-06-21T04:59:30.005Z,1008.79
2023-06-21T05:00:30.262Z,1008.79
2023-06-21T05:01:30.005Z,1008.76
2023-06-21T05:02:30.068Z,1008.76
2023-06-21T05:03:30.065Z,1008.74
2023-06-21T05:04:29.998Z,1008.76
2023-06-21T05:05:31.481Z,1008.73
2023-06-21T05:06:30.009Z,1008.73
2023-06-21T05:07:29.995Z,1008.68
2023-06-21T05:08:29.997Z,1008.67
2023-06-21T05:09:29.988Z,1008.63
2023-06-21T05:10:32.100Z,1008.55
2023-06-21T05:11:29.990Z,1008.54
2023-06-21T05:12:29.995Z,1008.53
2023-06-21T05:13:29.990Z,1008.56
2023-06-21T05:14:30.001Z,1008.58
2023-06-21T05:15:29.991Z,1008.59
2023-06-21T05:16:30.013Z,1008.62
2023-06-21T05:17:30.002Z,1008.63
2023-06-21T05:18:29.991Z,1008.62
2023-06-21T05:19:29.997Z,1008.62
2023-06-21T05:20:30.295Z,1008.63
2023-06-21T05:21:29.984Z,1008.60
2023-06-21T05:22:29.986Z,1008.68
2023-06-21T05:23:29.984Z,1008.71
2023-06-21T05:24:29.989Z,1008.75
2023-06-21T05:25:29.985Z,1008.72
2023-06-21T05:26:29.983Z,1008.71
2023-06-21T05:27:29.985Z,1008.70
2023-06-21T05:28:29.985Z,1008.66
2023-06-21T05:29:29.985Z,1008.61
2023-06-21T05:30:30.332Z,1008.58
2023-06-21T05:31:30.010Z,1008.59
2023-06-21T05:32:30.039Z,1008.63
2023-06-21T05:33:29.993Z,1008.67
2023-06-21T05:34:30.003Z,1008.69
2023-06-21T05:35:29.981Z,1008.67
2023-06-21T05:36:29.983Z,1008.68
2023-06-21T05:37:29.988Z,1008.72
2023-06-21T05:38:29.982Z,1008.73
2023-06-21T05:39:29.981Z,1008.78
2023-06-21T05:40:30.411Z,1008.84
2023-06-21T05:41:29.983Z,1008.88
2023-06-21T05:42:30.000Z,1008.87
2023-06-21T05:43:29.982Z,1008.91
2023-06-21T05:44:29.982Z,1008.93
2023-06-21T05:45:29.986Z,1009.04
2023-06-21T05:46:30.010Z,1009.00
2023-06-21T05:47:30.049Z,1009.07
2023-06-21T05:48:29.981Z,1009.12
2023-06-21T05:49:29.985Z,1009.15
2023-06-21T05:50:30.073Z,1009.10
2023-06-21T05:51:29.989Z,1009.08
2023-06-21T05:52:29.985Z,1009.13
2023-06-21T05:53:29.990Z,1009.17
2023-06-21T05:54:29.996Z,1009.18
2023-06-21T05:55:30.003Z,1009.20
2023-06-21T05:56:29.986Z,1009.21
2023-06-21T05:57:29.999Z,1009.25
2023-06-21T05:58:29.989Z,1009.27
2023-06-21T05:59:29.994Z,1009.26
2023-06-21T06:00:30.139Z,1009.23
2023-06-21T06:01:30.054Z,1009.22
2023-06-21T06:02:30.064Z,1009.18
2023-06-21T06:03:30.056Z,1009.20
2023-06-21T06:04:29.996Z,1009.24
2023-06-21T06:05:30.003Z,1009.24
2023-06-21T06:06:30.019Z,1009.20
2023-06-21T06:07:30.009Z,1009.16
2023-06-21T06:08:30.008Z,1009.16
2023-06-21T06:09:30.010Z,1009.13
2023-06-21T06:10:30.275Z,1009.18
2023-06-21T06:11:30.028Z,1009.19
2023-06-21T06:12:30.023Z,1009.17
2023-06-21T06:13:30.010Z,1009.18
2023-06-21T06:14:30.038Z,1009.24
2023-06-21T06:15:30.016Z,1009.23
2023-06-21T06:16:30.063Z,1009.26
2023-06-21T06:17:30.063Z,1009.26
2023-06-21T06:18:30.038Z,1009.18
2023-06-21T06:19:30.037Z,1009.22
2023-06-21T06:20:30.300Z,1009.16
2023-06-21T06:21:30.035Z,1009.18
2023-06-21T06:22:30.026Z,1009.19
2023-06-21T06:23:30.025Z,1009.22
2023-06-21T06:24:30.032Z,1009.23
2023-06-21T06:25:30.031Z,1009.22
2023-06-21T06:26:30.034Z,1009.19
2023-06-21T06:27:30.037Z,1009.17
2023-06-21T06:28:30.033Z,1009.18
2023-06-21T06:29:30.041Z,1009.15
2023-06-21T06:30:30.277Z,1009.22
2023-06-21T06:31:30.081Z,1009.22
2023-06-21T06:32:30.088Z,1009.26
2023-06-21T06:33:30.046Z,1009.31
2023-06-21T06:34:30.060Z,1009.36
2023-06-21T06:35:30.080Z,1009.44
2023-06-21T06:36:30.057Z,1009.35
2023-06-21T06:37:32.437Z,1009.39
2023-06-21T06:38:30.074Z,1009.36
2023-06-21T06:39:30.062Z,1009.37
2023-06-21T06:40:30.279Z,1009.43
2023-06-21T06:41:30.083Z,1009.47
2023-06-21T06:42:30.068Z,1009.52
2023-06-21T06:43:30.077Z,1009.48
2023-06-21T06:44:30.069Z,1009.46
2023-06-21T06:45:30.072Z,1009.46
2023-06-21T06:46:30.075Z,1009.51
2023-06-21T06:47:30.086Z,1009.46
2023-06-21T06:48:30.163Z,1009.47
2023-06-21T06:49:30.084Z,1009.41
2023-06-21T06:50:30.303Z,1009.50
2023-06-21T06:51:30.091Z,1009.51
2023-06-21T06:52:30.122Z,1009.52
2023-06-21T06:53:30.099Z,1009.54
2023-06-21T06:54:30.106Z,1009.51
2023-06-21T06:55:30.102Z,1009.55
2023-06-21T06:56:30.113Z,1009.57
2023-06-21T06:57:35.694Z,1009.54
2023-06-21T06:58:30.109Z,1009.57
2023-06-21T06:59:30.620Z,1009.48
2023-06-21T07:00:30.460Z,1009.49
2023-06-21T07:01:30.125Z,1009.58
2023-06-21T07:02:30.179Z,1009.60
2023-06-21T07:03:30.268Z,1009.63
2023-06-21T07:04:30.373Z,1009.64
2023-06-21T07:05:30.347Z,1009.63
2023-06-21T07:06:30.140Z,1009.60
2023-06-21T07:07:30.149Z,1009.59
2023-06-21T07:08:30.150Z,1009.63
2023-06-21T07:09:30.153Z,1009.57
2023-06-21T07:10:30.386Z,1009.62
2023-06-21T07:11:30.166Z,1009.62
2023-06-21T07:12:30.173Z,1009.57
2023-06-21T07:13:30.176Z,1009.61
2023-06-21T07:14:30.175Z,1009.56
2023-06-21T07:15:30.207Z,1009.57
2023-06-21T07:16:30.181Z,1009.65
2023-06-21T07:17:30.233Z,1009.64
2023-06-21T07:18:30.197Z,1009.68
2023-06-21T07:19:30.198Z,1009.70
2023-06-21T07:20:30.506Z,1009.64
2023-06-21T07:21:30.309Z,1009.70
2023-06-21T07:22:30.212Z,1009.75
2023-06-21T07:23:30.244Z,1009.81
2023-06-21T07:24:30.221Z,1009.79
2023-06-21T07:25:30.224Z,1009.82
2023-06-21T07:26:30.231Z,1009.85
2023-06-21T07:27:30.308Z,1009.83
2023-06-21T07:28:30.241Z,1009.81
2023-06-21T07:29:30.246Z,1009.84
2023-06-21T07:30:30.737Z,1009.81
2023-06-21T07:31:30.332Z,1009.83
2023-06-21T07:32:31.926Z,1009.83
2023-06-21T07:33:30.302Z,1009.86
2023-06-21T07:34:30.281Z,1009.85
2023-06-21T07:35:30.428Z,1009.89
2023-06-21T07:36:30.297Z,1009.94
2023-06-21T07:37:30.307Z,1009.93
2023-06-21T07:38:30.294Z,1009.96
2023-06-21T07:39:41.353Z,1009.90
2023-06-21T07:40:30.516Z,1010.00
2023-06-21T07:41:30.314Z,1010.00
2023-06-21T07:42:30.321Z,1010.01
2023-06-21T07:43:30.324Z,1009.97
2023-06-21T07:44:30.330Z,1010.02
2023-06-21T07:45:30.570Z,1010.04
2023-06-21T07:46:30.421Z,1010.07
2023-06-21T07:47:30.365Z,1010.09
2023-06-21T07:48:30.356Z,1010.09
2023-06-21T07:49:30.356Z,1010.09
2023-06-21T07:50:30.370Z,1010.07
2023-06-21T07:51:30.410Z,1010.04
2023-06-21T07:52:30.374Z,1010.11
2023-06-21T07:53:32.066Z,1010.08
2023-06-21T07:54:30.384Z,1010.12
2023-06-21T07:55:30.605Z,1010.11
2023-06-21T07:56:30.397Z,1010.15
2023-06-21T07:57:30.406Z,1010.15
2023-06-21T07:58:30.420Z,1010.10
2023-06-21T07:59:30.416Z,1010.07
2023-06-21T08:00:30.420Z,1010.14
2023-06-21T08:01:30.445Z,1010.09
2023-06-21T08:02:30.503Z,1010.12
2023-06-21T08:03:30.494Z,1010.16
2023-06-21T08:04:30.500Z,1010.20
2023-06-21T08:05:30.673Z,1010.14
2023-06-21T08:06:30.458Z,1010.14
2023-06-21T08:07:30.465Z,1010.11
2023-06-21T08:08:30.472Z,1010.12
2023-06-21T08:09:30.537Z,1010.15
2023-06-21T08:10:30.485Z,1010.30
2023-06-21T08:11:30.492Z,1010.32
2023-06-21T08:12:30.497Z,1010.34
2023-06-21T08:13:30.503Z,1010.27
2023-06-21T08:14:30.517Z,1010.41
2023-06-21T08:15:30.668Z,1010.41
2023-06-21T08:16:30.540Z,1010.28
2023-06-21T08:17:30.594Z,1010.49
2023-06-21T08:18:30.537Z,1010.48
2023-06-21T08:19:30.545Z,1010.43
2023-06-21T08:20:30.550Z,1010.51
2023-06-21T08:21:30.557Z,1010.49
2023-06-21T08:22:30.565Z,1010.46
2023-06-21T08:23:30.575Z,1010.50
2023-06-21T08:24:30.576Z,1010.50
2023-06-21T08:25:31.367Z,1010.51
2023-06-21T08:26:30.593Z,1010.45
2023-06-21T08:27:30.600Z,1010.55
2023-06-21T08:28:30.604Z,1010.57
2023-06-21T08:29:30.614Z,1010.60
2023-06-21T08:30:30.628Z,1010.54
2023-06-21T08:31:30.690Z,1010.63
2023-06-21T08:32:30.671Z,1010.59
2023-06-21T08:33:30.637Z,1010.58
2023-06-21T08:34:30.655Z,1010.56
2023-06-21T08:35:30.810Z,1010.52
2023-06-21T08:36:30.675Z,1010.47
2023-06-21T08:37:30.670Z,1010.47
2023-06-21T08:38:30.679Z,1010.45
2023-06-21T08:39:32.221Z,1010.46
2023-06-21T08:40:30.692Z,1010.42
2023-06-21T08:41:30.698Z,1010.45
2023-06-21T08:42:30.749Z,1010.43
2023-06-21T08:43:30.709Z,1010.48
2023-06-21T08:44:30.724Z,1010.50
2023-06-21T08:45:30.983Z,1010.49
2023-06-21T08:46:30.774Z,1010.50
2023-06-21T08:47:30.729Z,1010.42
2023-06-21T08:48:30.745Z,1010.46
2023-06-21T08:49:30.758Z,1010.47
2023-06-21T08:50:30.749Z,1010.46
2023-06-21T08:51:30.754Z,1010.48
2023-06-21T08:52:30.756Z,1010.56
2023-06-21T08:53:30.766Z,1010.61
2023-06-21T08:54:30.770Z,1010.55
2023-06-21T08:55:30.816Z,1010.54
2023-06-21T08:56:30.776Z,1010.52
2023-06-21T08:57:30.862Z,1010.57
2023-06-21T08:58:30.784Z,1010.60
2023-06-21T08:59:30.792Z,1010.58
2023-06-21T09:00:30.967Z,1010.58
2023-06-21T09:01:30.861Z,1010.62
2023-06-21T09:02:30.956Z,1010.65
2023-06-21T09:03:30.883Z,1010.69
2023-06-21T09:04:31.068Z,1010.77
2023-06-21T09:05:30.813Z,1010.67
2023-06-21T09:06:30.811Z,1010.77
2023-06-21T09:07:30.875Z,1010.72
2023-06-21T09:08:30.893Z,1010.72
2023-06-21T09:09:30.828Z,1010.75
2023-06-21T09:10:31.024Z,1010.73
2023-06-21T09:11:30.836Z,1010.73
2023-06-21T09:12:30.838Z,1010.77
2023-06-21T09:13:30.940Z,1010.76
2023-06-21T09:14:30.854Z,1010.77
2023-06-21T09:15:31.037Z,1010.75
2023-06-21T09:16:30.852Z,1010.72
2023-06-21T09:17:30.926Z,1010.70
2023-06-21T09:18:30.865Z,1010.69
2023-06-21T09:19:30.865Z,1010.75
2023-06-21T09:20:31.176Z,1010.73
2023-06-21T09:21:30.873Z,1010.73
2023-06-21T09:22:30.953Z,1010.72
2023-06-21T09:23:30.878Z,1010.74
2023-06-21T09:24:30.880Z,1010.76
2023-06-21T09:25:30.890Z,1010.80
2023-06-21T09:26:30.889Z,1010.77
2023-06-21T09:27:30.933Z,1010.79
2023-06-21T09:28:30.900Z,1010.80
2023-06-21T09:29:30.934Z,1010.81
2023-06-21T09:30:38.044Z,1010.80
2023-06-21T09:31:30.904Z,1010.85
2023-06-21T09:32:30.999Z,1010.89
2023-06-21T09:33:31.005Z,1010.93
2023-06-21T09:34:30.925Z,1010.94
2023-06-21T09:35:30.915Z,1011.05
2023-06-21T09:36:30.957Z,1010.99
2023-06-21T09:37:30.922Z,1010.99
2023-06-21T09:38:30.926Z,1011.04
2023-06-21T09:39:30.930Z,1011.04
2023-06-21T09:40:30.933Z,1011.05
2023-06-21T09:41:30.938Z,1011.06
2023-06-21T09:42:30.937Z,1011.12
2023-06-21T09:43:30.942Z,1011.08
2023-06-21T09:44:30.944Z,1011.04
2023-06-21T09:45:30.949Z,1011.07
2023-06-21T09:46:30.957Z,1011.11
2023-06-21T09:47:31.050Z,1011.07
2023-06-21T09:48:31.039Z,1011.06
2023-06-21T09:49:30.963Z,1011.03
2023-06-21T09:50:30.998Z,1011.01
2023-06-21T09:51:31.004Z,1011.02
2023-06-21T09:52:30.972Z,1011.06
2023-06-21T09:53:30.976Z,1011.03
2023-06-21T09:54:30.979Z,1011.01
2023-06-21T09:55:30.981Z,1010.96
2023-06-21T09:56:30.997Z,1011.03
2023-06-21T09:57:31.004Z,1010.98
2023-06-21T09:58:31.010Z,1010.98
2023-06-21T09:59:30.994Z,1010.94
2023-06-21T10:00:31.180Z,1011.02
2023-06-21T10:01:31.224Z,1011.01
2023-06-21T10:02:31.054Z,1010.98
2023-06-21T10:03:31.067Z,1010.98
2023-06-21T10:04:31.008Z,1011.02
2023-06-21T10:05:31.016Z,1011.02
2023-06-21T10:06:31.023Z,1011.03
2023-06-21T10:07:31.029Z,1011.00
2023-06-21T10:08:31.032Z,1010.92
2023-06-21T10:09:31.032Z,1010.95
2023-06-21T10:10:31.237Z,1010.94
2023-06-21T10:11:31.031Z,1010.96
2023-06-21T10:12:31.049Z,1010.95
2023-06-21T10:13:31.051Z,1010.98
2023-06-21T10:14:31.045Z,1010.99
2023-06-21T10:15:31.045Z,1010.99
2023-06-21T10:16:31.044Z,1010.98
2023-06-21T10:17:31.086Z,1011.03
2023-06-21T10:18:31.070Z,1011.07
2023-06-21T10:19:31.056Z,1011.03
2023-06-21T10:20:31.386Z,1011.05
2023-06-21T10:21:31.067Z,1011.06
2023-06-21T10:22:31.065Z,1011.08
2023-06-21T10:23:31.072Z,1011.07
2023-06-21T10:24:31.071Z,1011.09
2023-06-21T10:25:31.076Z,1011.10
2023-06-21T10:26:31.077Z,1011.10
2023-06-21T10:27:31.081Z,1011.12
2023-06-21T10:28:31.081Z,1011.11
2023-06-21T10:29:31.085Z,1011.12
2023-06-21T10:30:31.333Z,1011.16
2023-06-21T10:31:31.146Z,1011.17
2023-06-21T10:32:31.124Z,1011.20
2023-06-21T10:33:31.425Z,1011.19
2023-06-21T10:34:31.101Z,1011.16
2023-06-21T10:35:31.125Z,1011.21
2023-06-21T10:36:31.108Z,1011.18
2023-06-21T10:37:31.125Z,1011.13
2023-06-21T10:38:31.125Z,1011.14
2023-06-21T10:39:31.116Z,1011.13
2023-06-21T10:40:31.424Z,1011.07
2023-06-21T10:41:31.123Z,1011.15
2023-06-21T10:42:31.128Z,1011.16
2023-06-21T10:43:31.129Z,1011.22
2023-06-21T10:44:31.134Z,1011.16
2023-06-21T10:45:31.137Z,1011.19
2023-06-21T10:46:31.276Z,1011.21
2023-06-21T10:47:31.189Z,1011.21
2023-06-21T10:48:31.144Z,1011.27
2023-06-21T10:49:31.149Z,1011.22
2023-06-21T10:50:31.600Z,1011.26
2023-06-21T10:51:31.159Z,1011.11
2023-06-21T10:52:31.166Z,1011.30
2023-06-21T10:53:31.168Z,1011.27
2023-06-21T10:54:31.164Z,1011.32
2023-06-21T10:55:31.173Z,1011.27
2023-06-21T10:56:31.173Z,1011.29
2023-06-21T10:57:31.176Z,1011.31
2023-06-21T10:58:31.187Z,1011.31
2023-06-21T10:59:31.179Z,1011.35
2023-06-21T11:00:31.481Z,1011.33
2023-06-21T11:01:31.255Z,1011.32
2023-06-21T11:02:31.236Z,1011.40
2023-06-21T11:03:31.214Z,1011.36
2023-06-21T11:04:36.305Z,1011.37
2023-06-21T11:05:31.201Z,1011.38
2023-06-21T11:06:36.771Z,1011.36
2023-06-21T11:07:31.210Z,1011.46
2023-06-21T11:08:31.222Z,1011.43
2023-06-21T11:09:31.229Z,1011.42
2023-06-21T11:10:31.452Z,1011.48
2023-06-21T11:11:31.214Z,1011.43
2023-06-21T11:12:31.218Z,1011.45
2023-06-21T11:13:31.226Z,1011.45
2023-06-21T11:14:31.228Z,1011.46
2023-06-21T11:15:31.229Z,1011.43
2023-06-21T11:16:31.233Z,1011.39
2023-06-21T11:17:31.291Z,1011.46
2023-06-21T11:18:31.239Z,1011.44
2023-06-21T11:19:31.241Z,1011.44
2023-06-21T11:20:31.595Z,1011.44
2023-06-21T11:21:31.249Z,1011.44
2023-06-21T11:22:31.250Z,1011.41
2023-06-21T11:23:31.255Z,1011.45
2023-06-21T11:24:31.257Z,1011.40
2023-06-21T11:25:31.268Z,1011.43
2023-06-21T11:26:31.265Z,1011.39
2023-06-21T11:27:31.265Z,1011.38
2023-06-21T11:28:31.272Z,1011.36
2023-06-21T11:29:31.277Z,1011.38
2023-06-21T11:30:31.278Z,1011.39
2023-06-21T11:31:31.299Z,1011.33
2023-06-21T11:32:31.425Z,1011.35
2023-06-21T11:33:31.314Z,1011.37
2023-06-21T11:34:31.302Z,1011.40
2023-06-21T11:35:31.292Z,1011.36
2023-06-21T11:36:31.302Z,1011.42
2023-06-21T11:37:31.300Z,1011.49
2023-06-21T11:38:31.311Z,1011.44
2023-06-21T11:39:31.308Z,1011.44
2023-06-21T11:40:31.534Z,1011.46
2023-06-21T11:41:31.315Z,1011.39
2023-06-21T11:42:31.316Z,1011.43
2023-06-21T11:43:31.319Z,1011.43
2023-06-21T11:44:31.326Z,1011.44
2023-06-21T11:45:31.334Z,1011.47
2023-06-21T11:46:31.331Z,1011.48
2023-06-21T11:47:31.363Z,1011.49
2023-06-21T11:48:31.362Z,1011.49
2023-06-21T11:49:31.336Z,1011.50
2023-06-21T11:50:31.601Z,1011.54
2023-06-21T11:51:32.834Z,1011.53
2023-06-21T11:52:31.348Z,1011.53
2023-06-21T11:53:31.355Z,1011.59
2023-06-21T11:54:31.353Z,1011.60
2023-06-21T11:55:31.357Z,1011.65
2023-06-21T11:56:31.376Z,1011.66
2023-06-21T11:57:31.363Z,1011.66
2023-06-21T11:58:31.368Z,1011.66
2023-06-21T11:59:31.365Z,1011.62
2023-06-21T12:00:31.504Z,1011.61
2023-06-21T12:01:31.372Z,1011.59
2023-06-21T12:02:31.438Z,1011.58
2023-06-21T12:03:31.569Z,1011.61
2023-06-21T12:04:31.460Z,1011.63
2023-06-21T12:05:31.387Z,1011.68